Flight Track Log - Related Links

Times and Time Zones

All times are in EDT time to prevent confusion due to time zone crossing. See the ASQ4406 flight status page for this flight to view local times or setup timezone preferences in your user account.

Time Position Orientation Groundspeed Altitude Reporting Facility
EDT Latitude Longitude Course Direction KTS MPH feet Rate Location/Type
Mon 08:48:57 PM 27.7483 -97.4822 133° Southeast 147 169 1,900  Level Houston Center
Mon 08:49:58 PM 27.7722 -97.4294 63° Northeast 275 316 3,900 2,043 Climbing Houston Center
Mon 08:50:31 PM 27.8022 -97.4181 19° North 294 338 5,100 2,700 Climbing Houston Center
Mon 08:50:58 PM 27.8458 -97.4097 10° North 304 350 6,600 2,613 Climbing Houston Center
Mon 08:51:33 PM 27.8833 -97.3975 16° North 291 335 7,800 2,165 Climbing Houston Center
Mon 08:52:00 PM 27.9433 -97.3953 35° Northeast  Level FlightAware Approximate
Mon 08:52:35 PM 27.9703 -97.3719 15° North 292 336 10,100  Level Houston Center
Mon 08:53:00 PM 27.9924 -97.3561 35° Northeast  Level FlightAware Approximate
Mon 08:53:36 PM 28.0492 -97.3119 34° Northeast 340 391 10,700  Level Houston Center
Mon 08:54:38 PM 28.1286 -97.2372 40° Northeast 369 425 12,000 1,306 Climbing Houston Center
Mon 08:55:40 PM 28.2142 -97.1697 35° Northeast 375 432 13,400 1,415 Climbing Houston Center
Mon 08:56:41 PM 28.3042 -97.1050 32° Northeast 379 436 14,900 1,561 Climbing Houston Center
Mon 08:57:43 PM 28.4106 -97.0256 33° Northeast 381 438 16,600 968 Climbing Houston Center
Mon 08:58:45 PM 28.5036 -96.9561 33° Northeast 394 453 16,900 146 Climbing Houston Center
Mon 08:59:46 PM 28.6017 -96.8828 33° Northeast 415 478 16,900  Level Houston Center
Mon 09:00:48 PM 28.6981 -96.8089 34° Northeast 420 483 16,900  Level Houston Center
Mon 09:01:50 PM 28.7942 -96.7386 33° Northeast 415 478 16,900 49 Level Houston Center
Mon 09:02:51 PM 28.8903 -96.6661 33° Northeast 415 478 17,000 49 Climbing Houston Center
Mon 09:03:53 PM 29.0050 -96.5789 34° Northeast 415 478 17,000  Level Houston Center
Mon 09:04:55 PM 29.1003 -96.5072 33° Northeast 414 476 17,000 -110 Level Houston Center
Mon 09:05:42 PM 29.1750 -96.4494 34° Northeast 415 478 16,800 -1,105 Descending Houston Center
Mon 09:06:49 PM 29.2836 -96.3683 33° Northeast 414 476 14,900 -1,870 Descending Houston Center
Mon 09:08:00 PM 29.3817 -96.2928 34° Northeast 405 466 12,500 -2,109 Descending Houston Center
Mon 09:08:57 PM 29.4767 -96.2200 34° Northeast 391 450 10,400 -1,339 Descending Houston Center
Mon 09:09:52 PM 29.5489 -96.1567 37° Northeast 355 409 10,000 -259 Descending Houston Center
Mon 09:10:53 PM 29.5994 -96.0597 59° Northeast 325 374 9,900 -984 Descending Houston Center
Mon 09:11:54 PM 29.6425 -95.9781 59° Northeast 287 330 8,000 -1,359 Descending Houston Center
Mon 09:13:01 PM 29.7225 -95.9328 26° Northeast 295 339 7,000 -492 Descending Houston Center
Mon 09:13:56 PM 29.7989 -95.9169 10° North 301 346 7,000  Level Houston Center
Mon 09:15:11 PM 29.8919 -95.9047 North 281 323 7,000 -197 Level Houston Center
Mon 09:15:58 PM 29.9503 -95.8969 North 262 302 6,600 -581 Descending Houston Center
Mon 09:16:13 PM 29.9631 -95.8967 North 261 300 6,400 -492 Descending Houston Center
Mon 09:16:59 PM 29.9936 -95.8389 59° Northeast 243 280 6,100 -295 Descending Houston Center
Mon 09:17:14 PM 29.9953 -95.8294 78° East 253 291 6,100 -590 Level Houston Center
Mon 09:18:00 PM 29.9911 -95.7622 94° East 238 274 5,500 -677 Descending Houston Center
Mon 09:18:16 PM 29.9919 -95.7519 85° East 242 278 5,400 -385 Descending Houston Center
Mon 09:19:18 PM 29.9931 -95.6811 89° East 224 258 5,000 -439 Descending Houston Center
Mon 09:20:19 PM 29.9928 -95.6231 90° East 187 215 4,500 -743 Descending Houston Center
Mon 09:21:03 PM 29.9928 -95.5689 90° East 179 206 3,700 -1,065 Descending Houston Center
Mon 09:21:21 PM 29.9933 -95.5542 88° East 179 206 3,400 -900 Descending Houston Center
Mon 09:22:03 PM 29.9922 -95.5161 92° East 172 198 2,800 -885 Descending Houston Center
Mon 09:22:22 PM 29.9933 -95.4986 86° East 176 203 2,500 -885 Descending Houston Center
Mon 09:23:04 PM 29.9933 -95.4603 90° East 161 185 1,900 -774 Descending Houston Center
Mon 09:23:24 PM 29.9933 -95.4469 90° East 171 197 1,700 -600 Descending Houston Center

Login

Don't have an account? Register now (free) for customized features, flight alerts, and more!